Emmonak Airport Emmonak US
ICAO: PAEM
IATA:
Category: Medium
Scheduled Services:

Elevation: 13 ft
TransAlt. 18000 ft.

Airport Communications:
AWOS 3:135.35
ANCHORAGE CNTR:132.5
CTAF:122.9
KENAI RDO:122.55
TWEB:177.8

PAEM Zoom In..

Runways:

(A) RW 16 length 4601 ft width 100 ft
---- / hdg 163

(B) RW 34 length 4601 ft width 100 ft
---- / hdg 343

Location; PAEM
Day. 23 / Time. 02.56 Zulu
* Altimeter: 30.06
* Temperature: 20° c. 68°f.
* Wind from: 280° Speed 03 kn.
Dewpoint: 13° c.
Visibility: 10 Statute Miles.
Clouds: Few 5000 ft.

PAEM 230256Z AUTO 28003KT 10SM FEW050 20/13 A3006 RMK AO2 SLP239 T02000133 56010


Wind From 280°
Speed 03 kn.

 
 
jpsmedia.com for Web Design worldairports.se 2018   terms of use